Time;durP1;ratioP1;P1;durP2;ratioP2;P2;SDS_P1;SDS_P2;PMS_P1;PMS_P2;Temp;Humidity;BMP_temperature;BMP_pressure;BME280_temperature;BME280_humidity;BME280_pressure;Samples;Min_cycle;Max_cycle;Signal;HPM_P1;HPM_P2
2021/10/25 04:52:50;;;;;;;17.50;11.43;;;;;;;;;;5136282;22;20037;-93
2021/10/25 04:55:19;;;;;;;20.48;11.57;;;;;;;;;;5103475;28;20045;-91
2021/10/25 04:57:47;;;;;;;18.80;10.30;;;;;;;;;;5091315;28;20392;-91
2021/10/25 05:00:14;;;;;;;18.25;10.80;;;;;;;;;;5090329;28;20047;-91
2021/10/25 05:02:42;;;;;;;18.30;11.20;;;;;;;;;;5061596;28;20508;-91
2021/10/25 05:05:10;;;;;;;16.95;11.50;;;;;;;;;;5080457;28;20032;-91
2021/10/25 05:10:29;;;;;;;29.67;19.65;;;;;;;;;;5076141;28;20044;-91
2021/10/25 05:12:59;;;;;;;25.50;12.73;;;;;;;;;;5088661;28;20051;-91
2021/10/25 05:15:31;;;;;;;19.42;12.23;;;;;;;;;;5071748;28;20172;-91
2021/10/25 05:17:58;;;;;;;19.20;10.55;;;;;;;;;;5064410;28;20124;-91
2021/10/25 05:20:26;;;;;;;160.88;89.47;;;;;;;;;;5071761;28;20348;-91
2021/10/25 05:22:59;;;;;;;25.55;15.02;;;;;;;;;;5069754;28;20358;-91
2021/10/25 05:25:28;;;;;;;28.75;16.48;;;;;;;;;;5070484;28;20049;-92
2021/10/25 05:27:57;;;;;;;24.13;14.65;;;;;;;;;;5063343;28;20129;-92
2021/10/25 05:30:37;;;;;;;25.77;15.30;;;;;;;;;;5074451;28;20048;-92
2021/10/25 05:33:06;;;;;;;20.70;11.60;;;;;;;;;;5096145;28;20029;-91
2021/10/25 05:35:34;;;;;;;18.42;10.05;;;;;;;;;;5068490;28;20047;-91
2021/10/25 05:38:02;;;;;;;26.55;13.20;;;;;;;;;;5071171;28;20071;-91
2021/10/25 05:40:29;;;;;;;29.73;13.48;;;;;;;;;;5089100;28;20068;-91
2021/10/25 05:43:02;;;;;;;74.07;15.40;;;;;;;;;;5214013;22;20059;-89
2021/10/25 05:45:57;;;;;;;32.30;15.25;;;;;;;;;;5170045;22;20111;-91
2021/10/25 05:49:06;;;;;;;23.02;13.95;;;;;;;;;;5072117;28;20057;-91
2021/10/25 05:51:34;;;;;;;20.30;13.30;;;;;;;;;;5043699;28;20048;-90
2021/10/25 05:54:05;;;;;;;21.80;13.60;;;;;;;;;;5035789;28;20131;-90
2021/10/25 05:56:38;;;;;;;19.88;12.48;;;;;;;;;;5044624;28;20068;-90
2021/10/25 05:59:09;;;;;;;23.40;12.13;;;;;;;;;;5035538;28;20049;-91
2021/10/25 06:01:41;;;;;;;22.67;11.18;;;;;;;;;;5040061;28;20041;-91
2021/10/25 06:07:55;;;;;;;40.60;13.40;;;;;;;;;;5652601;23;20048;-91
2021/10/25 06:10:39;;;;;;;36.35;12.98;;;;;;;;;;5064509;28;20596;-89
2021/10/25 06:13:08;;;;;;;38.92;16.23;;;;;;;;;;5071502;28;20048;-89
2021/10/25 06:16:04;;;;;;;38.55;15.70;;;;;;;;;;5072556;28;20121;-89
2021/10/25 06:18:32;;;;;;;34.10;17.38;;;;;;;;;;5073876;28;20056;-89
2021/10/25 06:21:00;;;;;;;39.13;17.52;;;;;;;;;;5070281;28;20054;-89
2021/10/25 06:23:28;;;;;;;34.38;17.17;;;;;;;;;;5071853;28;20561;-89
2021/10/25 06:25:56;;;;;;;94.78;19.83;;;;;;;;;;5068507;28;20425;-90
2021/10/25 06:28:28;;;;;;;45.60;17.73;;;;;;;;;;5075426;28;20044;-90
2021/10/25 06:31:04;;;;;;;59.85;18.63;;;;;;;;;;5071539;28;20541;-90
2021/10/25 06:33:52;;;;;;;47.35;18.33;;;;;;;;;;5040981;28;20040;-90
2021/10/25 06:36:47;;;;;;;39.53;20.17;;;;;;;;;;5079657;22;20113;-87
2021/10/25 06:39:43;;;;;;;69.05;21.05;;;;;;;;;;5091898;22;20045;-90
2021/10/25 06:42:13;;;;;;;37.50;19.20;;;;;;;;;;5073100;28;20063;-90
2021/10/25 06:44:51;;;;;;;41.28;18.70;;;;;;;;;;5069978;28;20190;-90
2021/10/25 06:47:25;;;;;;;44.60;20.37;;;;;;;;;;5081449;28;20151;-90
2021/10/25 06:55:45;;;;;;;44.38;22.45;;;;;;;;;;5015710;28;20045;-89
2021/10/25 06:58:15;;;;;;;80.57;38.55;;;;;;;;;;5012271;28;20038;-89
2021/10/25 07:00:43;;;;;;;99.45;47.10;;;;;;;;;;5021697;28;20045;-88
2021/10/25 07:03:14;;;;;;;76.93;36.30;;;;;;;;;;4998985;28;20074;-88
2021/10/25 07:05:41;;;;;;;58.10;29.25;;;;;;;;;;4976062;28;20046;-90
2021/10/25 07:08:14;;;;;;;50.80;26.38;;;;;;;;;;4989543;28;20202;-88
2021/10/25 07:10:47;;;;;;;38.75;19.75;;;;;;;;;;4971542;28;20161;-89
2021/10/25 07:13:14;;;;;;;64.60;16.55;;;;;;;;;;4976123;28;20046;-87
2021/10/25 07:15:46;;;;;;;53.00;14.63;;;;;;;;;;4975257;28;20065;-88
2021/10/25 07:18:20;;;;;;;34.78;13.35;;;;;;;;;;4972059;28;20066;-86
2021/10/25 07:20:58;;;;;;;35.10;14.05;;;;;;;;;;4987146;28;20038;-86
2021/10/25 08:04:49;;;;;;;52.75;18.38;;;;;;;;;;5005033;28;20050;-86
2021/10/25 08:07:25;;;;;;;40.35;19.98;;;;;;;;;;5019718;28;20287;-86
2021/10/25 08:19:44;;;;;;;52.47;22.85;;;;;;;;;;5248491;23;20036;-88
2021/10/25 08:40:22;;;;;;;35.05;16.42;;;;;;;;;;5085922;28;20044;-81
2021/10/25 08:42:49;;;;;;;37.38;18.20;;;;;;;;;;5093388;28;20067;-80
2021/10/25 08:45:19;;;;;;;34.13;17.35;;;;;;;;;;5076687;28;20360;-81
2021/10/25 08:47:49;;;;;;;40.78;19.27;;;;;;;;;;5083823;28;20099;-81
2021/10/25 08:50:17;;;;;;;49.03;21.05;;;;;;;;;;5078934;28;20144;-81
2021/10/25 08:52:46;;;;;;;51.88;20.08;;;;;;;;;;5078546;28;20040;-82
2021/10/25 08:55:16;;;;;;;56.67;22.02;;;;;;;;;;5070319;28;20041;-81
2021/10/25 08:57:44;;;;;;;79.47;24.10;;;;;;;;;;5062365;28;20049;-81
2021/10/25 09:00:13;;;;;;;50.85;22.52;;;;;;;;;;5068920;28;20044;-81
2021/10/25 09:03:01;;;;;;;42.63;20.50;;;;;;;;;;5070615;28;20374;-81
2021/10/25 09:05:28;;;;;;;40.92;22.58;;;;;;;;;;5066699;28;20394;-81
2021/10/25 09:07:59;;;;;;;61.53;29.45;;;;;;;;;;5067479;28;20624;-81
2021/10/25 09:10:33;;;;;;;57.53;31.15;;;;;;;;;;5056946;28;20047;-81
2021/10/25 09:13:02;;;;;;;50.60;27.35;;;;;;;;;;5053382;28;20048;-80
2021/10/25 09:15:30;;;;;;;47.10;29.13;;;;;;;;;;5067567;28;20098;-81
2021/10/25 09:18:11;;;;;;;45.22;26.15;;;;;;;;;;5067861;28;20167;-81
2021/10/25 09:20:46;;;;;;;44.83;25.10;;;;;;;;;;5068348;28;20131;-81
2021/10/25 09:23:15;;;;;;;38.75;24.17;;;;;;;;;;5070440;28;20033;-81
2021/10/25 09:25:43;;;;;;;41.00;27.60;;;;;;;;;;5068819;28;20041;-81
2021/10/25 09:28:16;;;;;;;53.58;32.00;;;;;;;;;;5069664;28;20132;-81
2021/10/25 09:30:52;;;;;;;52.38;32.58;;;;;;;;;;5067281;28;20036;-80
2021/10/25 09:33:22;;;;;;;55.35;35.28;;;;;;;;;;5051611;28;20087;-80
2021/10/25 09:36:18;;;;;;;53.47;35.42;;;;;;;;;;5067854;28;20131;-80
2021/10/25 09:39:04;;;;;;;64.68;36.70;;;;;;;;;;5072878;28;20080;-80
2021/10/25 09:41:49;;;;;;;64.72;35.17;;;;;;;;;;5066912;28;20060;-80
2021/10/25 09:50:19;;;;;;;48.42;33.47;;;;;;;;;;5051421;28;20043;-80
2021/10/25 09:52:48;;;;;;;56.08;37.17;;;;;;;;;;5065263;28;20056;-80
2021/10/25 09:55:22;;;;;;;56.45;36.08;;;;;;;;;;5067304;28;20051;-80
2021/10/25 09:58:04;;;;;;;53.80;35.55;;;;;;;;;;5067285;28;20044;-80
2021/10/25 10:00:37;;;;;;;51.03;37.58;;;;;;;;;;5066504;28;20066;-79
2021/10/25 10:03:04;;;;;;;50.75;37.22;;;;;;;;;;5069288;28;20140;-80
2021/10/25 10:06:00;;;;;;;56.72;37.92;;;;;;;;;;5066896;28;20044;-80
2021/10/25 10:08:32;;;;;;;58.25;37.67;;;;;;;;;;5062527;28;20053;-81
2021/10/25 10:11:05;;;;;;;57.80;39.35;;;;;;;;;;5054798;28;20036;-81
2021/10/25 10:13:32;;;;;;;57.38;39.90;;;;;;;;;;5050534;28;20532;-81
2021/10/25 10:16:16;;;;;;;62.38;42.85;;;;;;;;;;5067679;28;20516;-81
2021/10/25 10:18:47;;;;;;;62.85;41.03;;;;;;;;;;5066097;28;20060;-81
2021/10/25 10:21:41;;;;;;;64.35;42.13;;;;;;;;;;5066869;28;20497;-81
2021/10/25 10:24:13;;;;;;;57.63;39.92;;;;;;;;;;5068172;28;20053;-81
2021/10/25 10:26:42;;;;;;;60.95;39.88;;;;;;;;;;5051928;28;20119;-81
2021/10/25 10:29:18;;;;;;;54.50;38.78;;;;;;;;;;5065253;28;20477;-81
2021/10/25 10:32:06;;;;;;;58.47;39.65;;;;;;;;;;5069829;28;20676;-82
2021/10/25 10:35:02;;;;;;;58.80;42.20;;;;;;;;;;5069694;28;20074;-80
2021/10/25 10:37:48;;;;;;;57.33;38.67;;;;;;;;;;5056222;28;20512;-80
2021/10/25 10:40:24;;;;;;;52.13;37.07;;;;;;;;;;5065023;28;20044;-80
2021/10/25 10:43:22;;;;;;;46.35;34.50;;;;;;;;;;5068179;28;20523;-80
2021/10/25 10:45:57;;;;;;;50.47;33.13;;;;;;;;;;5066250;28;20052;-80
2021/10/25 10:48:26;;;;;;;44.70;32.78;;;;;;;;;;5075082;28;20084;-80
2021/10/25 10:51:01;;;;;;;48.97;32.20;;;;;;;;;;5070475;28;20469;-80
2021/10/25 10:53:30;;;;;;;45.90;33.20;;;;;;;;;;5081240;28;20060;-83
2021/10/25 10:56:01;;;;;;;46.25;33.80;;;;;;;;;;5068482;28;20040;-81
2021/10/25 10:58:48;;;;;;;51.33;34.22;;;;;;;;;;5069299;28;20161;-85
2021/10/25 11:01:15;;;;;;;57.10;36.03;;;;;;;;;;5052894;28;20052;-83
2021/10/25 11:03:43;;;;;;;55.05;38.05;;;;;;;;;;5067534;28;20482;-84
2021/10/25 11:06:11;;;;;;;56.58;37.92;;;;;;;;;;5069384;28;20040;-83
2021/10/25 11:08:39;;;;;;;56.42;37.40;;;;;;;;;;5067897;28;20041;-83
2021/10/25 11:11:07;;;;;;;58.42;38.35;;;;;;;;;;5058913;28;20127;-82
2021/10/25 11:13:43;;;;;;;63.50;37.95;;;;;;;;;;5063315;28;20048;-82
2021/10/25 11:16:13;;;;;;;52.15;36.00;;;;;;;;;;5062401;28;20527;-83
2021/10/25 11:18:43;;;;;;;60.00;40.03;;;;;;;;;;5064175;28;20049;-83
2021/10/25 11:21:12;;;;;;;57.05;38.17;;;;;;;;;;5064588;28;20041;-82
2021/10/25 11:23:44;;;;;;;50.58;35.28;;;;;;;;;;5056863;28;20103;-82
2021/10/25 11:26:13;;;;;;;54.80;37.30;;;;;;;;;;5055461;28;20135;-83
2021/10/25 11:28:53;;;;;;;53.53;37.17;;;;;;;;;;5066873;28;20049;-84
2021/10/25 11:31:20;;;;;;;50.70;35.72;;;;;;;;;;5069206;28;20037;-83
2021/10/25 11:33:48;;;;;;;54.88;32.50;;;;;;;;;;5067725;28;20116;-83
2021/10/25 11:36:25;;;;;;;43.55;31.30;;;;;;;;;;5070921;28;20045;-83
2021/10/25 11:38:53;;;;;;;41.65;29.77;;;;;;;;;;5084348;28;20054;-84
2021/10/25 11:41:20;;;;;;;42.25;29.80;;;;;;;;;;5084482;28;20032;-82
2021/10/25 11:43:49;;;;;;;40.17;30.05;;;;;;;;;;5089156;28;20040;-82
2021/10/25 11:46:17;;;;;;;38.67;27.77;;;;;;;;;;5079733;28;20024;-83
2021/10/25 11:48:51;;;;;;;41.28;28.30;;;;;;;;;;5091012;28;20033;-83
2021/10/25 11:51:19;;;;;;;36.35;27.33;;;;;;;;;;5085277;28;20040;-83
2021/10/25 11:53:46;;;;;;;42.28;28.00;;;;;;;;;;5072612;28;20131;-83
2021/10/25 11:56:14;;;;;;;37.35;26.10;;;;;;;;;;5081676;28;20067;-83
2021/10/25 11:58:43;;;;;;;32.25;25.45;;;;;;;;;;5062849;28;20041;-83
2021/10/25 12:01:15;;;;;;;39.78;26.27;;;;;;;;;;5062678;28;20049;-82
2021/10/25 12:03:47;;;;;;;32.58;26.02;;;;;;;;;;5057321;28;20063;-82
2021/10/25 12:06:15;;;;;;;33.95;25.42;;;;;;;;;;5057325;28;20040;-82
2021/10/25 12:08:43;;;;;;;35.75;25.27;;;;;;;;;;5057967;28;20110;-83
2021/10/25 12:11:10;;;;;;;28.00;23.40;;;;;;;;;;5062515;28;20064;-84
2021/10/25 12:13:38;;;;;;;27.50;22.17;;;;;;;;;;5061629;28;20043;-83
2021/10/25 12:16:09;;;;;;;29.23;23.63;;;;;;;;;;5057896;28;20076;-84
2021/10/25 12:18:38;;;;;;;28.15;21.35;;;;;;;;;;5056464;28;20304;-86
2021/10/25 12:21:10;;;;;;;39.00;23.92;;;;;;;;;;5056222;28;20029;-85
2021/10/25 12:23:46;;;;;;;43.38;27.40;;;;;;;;;;5060514;28;20071;-85
2021/10/25 12:26:17;;;;;;;36.77;24.67;;;;;;;;;;5057553;28;20120;-83
2021/10/25 12:28:45;;;;;;;26.75;21.38;;;;;;;;;;5062467;28;20047;-83
2021/10/25 12:31:14;;;;;;;29.27;20.63;;;;;;;;;;5065632;28;20041;-82
2021/10/25 12:33:45;;;;;;;53.40;28.02;;;;;;;;;;5068696;28;20281;-84
2021/10/25 12:36:13;;;;;;;31.58;21.02;;;;;;;;;;5067065;28;20036;-83
2021/10/25 12:38:42;;;;;;;42.28;23.05;;;;;;;;;;5061310;28;20068;-83
2021/10/25 12:41:10;;;;;;;26.83;17.38;;;;;;;;;;5068843;28;20058;-88
2021/10/25 12:43:41;;;;;;;21.40;14.75;;;;;;;;;;5069719;28;20060;-84
2021/10/25 12:46:10;;;;;;;53.80;22.40;;;;;;;;;;5066613;28;20547;-83
2021/10/25 12:48:43;;;;;;;20.27;14.98;;;;;;;;;;5070435;28;20080;-84
2021/10/25 12:51:10;;;;;;;94.60;30.17;;;;;;;;;;5075171;28;20064;-83
2021/10/25 12:53:42;;;;;;;36.08;16.75;;;;;;;;;;5077242;28;20490;-83
2021/10/25 12:56:10;;;;;;;30.60;16.55;;;;;;;;;;5069840;28;20045;-82
2021/10/25 12:58:38;;;;;;;16.48;14.43;;;;;;;;;;5063314;28;20068;-82
2021/10/25 13:01:10;;;;;;;24.52;16.23;;;;;;;;;;5065403;28;20151;-83
2021/10/25 13:03:37;;;;;;;31.27;17.45;;;;;;;;;;5067603;28;20032;-83
2021/10/25 13:06:08;;;;;;;31.20;18.38;;;;;;;;;;5064312;28;20486;-83
2021/10/25 13:08:36;;;;;;;19.92;15.00;;;;;;;;;;5064116;28;20041;-83
2021/10/25 13:11:04;;;;;;;19.67;15.52;;;;;;;;;;5067837;28;20047;-83
2021/10/25 13:13:33;;;;;;;28.50;16.95;;;;;;;;;;5065709;28;20485;-83
2021/10/25 13:16:01;;;;;;;34.83;21.90;;;;;;;;;;5059079;28;20134;-82
2021/10/25 13:18:28;;;;;;;24.70;15.82;;;;;;;;;;5061601;28;20037;-83
2021/10/25 13:20:57;;;;;;;20.02;14.82;;;;;;;;;;5059169;28;20478;-84
2021/10/25 13:23:26;;;;;;;24.27;15.45;;;;;;;;;;5058226;28;20597;-83
2021/10/25 13:25:53;;;;;;;20.05;15.48;;;;;;;;;;5081885;28;20127;-82
2021/10/25 13:28:21;;;;;;;53.58;30.02;;;;;;;;;;5066789;28;20078;-82
2021/10/25 13:30:49;;;;;;;21.58;14.73;;;;;;;;;;5067417;28;20535;-83
2021/10/25 13:33:16;;;;;;;36.53;20.80;;;;;;;;;;5070565;28;20340;-83
2021/10/25 13:35:44;;;;;;;34.00;19.25;;;;;;;;;;5068625;28;20087;-83
2021/10/25 13:38:11;;;;;;;28.52;19.23;;;;;;;;;;5065060;28;20083;-83
2021/10/25 13:40:43;;;;;;;23.45;15.30;;;;;;;;;;5068972;28;20045;-83
2021/10/25 13:43:10;;;;;;;26.73;17.35;;;;;;;;;;5069633;28;20114;-83
2021/10/25 13:45:37;;;;;;;32.40;17.83;;;;;;;;;;5065140;28;20051;-84
2021/10/25 13:48:05;;;;;;;23.67;16.05;;;;;;;;;;5068208;28;20437;-83
2021/10/25 13:50:32;;;;;;;29.70;16.55;;;;;;;;;;5063156;28;20068;-83
2021/10/25 13:53:00;;;;;;;20.98;15.73;;;;;;;;;;5065371;28;20130;-83
2021/10/25 13:55:28;;;;;;;23.08;18.50;;;;;;;;;;5066899;28;20128;-83
2021/10/25 13:57:59;;;;;;;18.90;14.50;;;;;;;;;;5067066;28;20064;-84
2021/10/25 14:00:26;;;;;;;20.48;15.38;;;;;;;;;;5064400;28;20113;-82
2021/10/25 14:02:57;;;;;;;21.55;15.23;;;;;;;;;;5069754;28;20051;-85
2021/10/25 14:05:25;;;;;;;19.27;13.90;;;;;;;;;;5052547;28;20041;-84
2021/10/25 14:07:52;;;;;;;20.45;15.50;;;;;;;;;;5064886;28;20044;-83
2021/10/25 14:10:34;;;;;;;17.65;14.38;;;;;;;;;;5058893;28;20049;-91
2021/10/25 14:13:08;;;;;;;22.02;15.00;;;;;;;;;;5060923;28;20064;-84
2021/10/25 14:15:44;;;;;;;23.00;14.10;;;;;;;;;;5062844;28;20065;-84
2021/10/25 14:18:12;;;;;;;18.05;15.00;;;;;;;;;;5061105;28;20105;-85
2021/10/25 14:20:40;;;;;;;20.90;13.70;;;;;;;;;;5061535;28;20048;-85
2021/10/25 14:23:10;;;;;;;18.13;13.90;;;;;;;;;;5060362;28;20047;-84
2021/10/25 14:25:38;;;;;;;18.35;13.32;;;;;;;;;;5066136;28;20082;-84
2021/10/25 14:28:07;;;;;;;17.90;13.73;;;;;;;;;;5062574;28;20040;-83
2021/10/25 14:30:35;;;;;;;20.25;14.65;;;;;;;;;;5056881;28;20044;-84
2021/10/25 14:33:03;;;;;;;22.05;14.20;;;;;;;;;;5061776;28;20041;-84
2021/10/25 14:35:31;;;;;;;23.67;14.18;;;;;;;;;;5065988;28;20489;-84
2021/10/25 14:41:17;;;;;;;19.10;13.65;;;;;;;;;;5089207;28;20047;-82
2021/10/25 14:43:48;;;;;;;19.20;14.05;;;;;;;;;;5092100;28;20068;-83
2021/10/25 14:46:39;;;;;;;17.20;13.18;;;;;;;;;;5077368;28;20051;-82
2021/10/25 14:49:13;;;;;;;18.98;12.73;;;;;;;;;;5079009;28;20063;-81
2021/10/25 14:54:33;;;;;;;18.40;13.13;;;;;;;;;;5070947;28;20036;-82
2021/10/25 14:57:02;;;;;;;18.80;13.73;;;;;;;;;;5068456;28;20064;-83
2021/10/25 14:59:30;;;;;;;21.27;13.93;;;;;;;;;;5066028;28;20045;-83
2021/10/25 15:01:58;;;;;;;17.98;13.82;;;;;;;;;;5060526;28;20037;-83
2021/10/25 15:04:26;;;;;;;18.63;14.02;;;;;;;;;;5064763;28;20056;-83
2021/10/25 15:06:53;;;;;;;18.42;13.90;;;;;;;;;;5063147;28;20044;-83
2021/10/25 15:09:21;;;;;;;19.88;14.68;;;;;;;;;;5065078;28;20490;-83
2021/10/25 15:11:48;;;;;;;21.77;14.45;;;;;;;;;;5055157;28;20033;-83
2021/10/25 15:14:16;;;;;;;20.65;14.27;;;;;;;;;;5060006;28;20041;-82
2021/10/25 15:16:45;;;;;;;21.25;15.18;;;;;;;;;;5064180;28;20051;-83
2021/10/25 15:19:13;;;;;;;22.00;14.70;;;;;;;;;;5060552;28;20517;-83
2021/10/25 15:21:41;;;;;;;20.48;14.32;;;;;;;;;;5064969;28;20043;-83
2021/10/25 15:24:09;;;;;;;24.15;14.30;;;;;;;;;;5058816;28;20140;-82
2021/10/25 15:26:43;;;;;;;21.80;14.48;;;;;;;;;;5061170;28;20116;-83
2021/10/25 15:29:10;;;;;;;21.23;14.95;;;;;;;;;;5071176;28;20037;-83
2021/10/25 15:31:37;;;;;;;19.33;14.20;;;;;;;;;;5064504;28;20662;-83
2021/10/25 15:34:06;;;;;;;23.38;15.32;;;;;;;;;;5086935;28;20025;-83
2021/10/25 15:36:34;;;;;;;21.05;14.45;;;;;;;;;;5090084;28;20165;-83
2021/10/25 15:39:01;;;;;;;24.52;15.93;;;;;;;;;;5088856;28;20033;-85
2021/10/25 15:41:29;;;;;;;21.92;15.80;;;;;;;;;;5073963;28;20045;-82
2021/10/25 15:43:56;;;;;;;21.75;13.90;;;;;;;;;;5067124;28;20036;-84
2021/10/25 15:46:24;;;;;;;25.65;15.27;;;;;;;;;;5072021;28;20458;-84
2021/10/25 15:48:51;;;;;;;20.92;15.27;;;;;;;;;;5061692;28;20040;-84
2021/10/25 15:51:21;;;;;;;21.15;14.55;;;;;;;;;;5060878;28;20052;-84
2021/10/25 15:53:48;;;;;;;26.48;16.27;;;;;;;;;;5064672;28;20123;-83
2021/10/25 15:56:15;;;;;;;25.42;14.70;;;;;;;;;;5062877;28;20040;-84
2021/10/25 15:58:43;;;;;;;22.20;16.23;;;;;;;;;;5063301;28;20049;-84
2021/10/25 16:01:10;;;;;;;23.45;16.15;;;;;;;;;;5058255;28;20044;-84
2021/10/25 16:03:38;;;;;;;21.73;16.08;;;;;;;;;;5068732;28;20047;-83
2021/10/25 16:06:05;;;;;;;26.23;16.35;;;;;;;;;;5075912;28;20044;-83
2021/10/25 16:08:34;;;;;;;26.13;16.45;;;;;;;;;;5068096;28;20044;-83
2021/10/25 16:11:02;;;;;;;26.52;17.25;;;;;;;;;;5069046;28;20084;-83
2021/10/25 16:13:29;;;;;;;29.08;17.50;;;;;;;;;;5065211;28;20045;-84
2021/10/25 16:15:56;;;;;;;24.83;15.82;;;;;;;;;;5067552;28;20037;-84
2021/10/25 16:18:24;;;;;;;24.17;16.27;;;;;;;;;;5066086;28;20106;-84
2021/10/25 16:20:52;;;;;;;21.83;15.80;;;;;;;;;;5069555;28;20048;-84
2021/10/25 16:23:20;;;;;;;24.85;17.92;;;;;;;;;;5069855;28;20075;-83
2021/10/25 16:25:51;;;;;;;28.27;17.42;;;;;;;;;;5066510;28;20502;-84
2021/10/25 16:31:23;;;;;;;29.50;21.83;;;;;;;;;;5095925;22;20052;-87
2021/10/25 16:33:50;;;;;;;32.38;19.77;;;;;;;;;;5084874;28;20477;-87
2021/10/25 16:36:18;;;;;;;29.80;18.60;;;;;;;;;;5083575;28;20489;-86
2021/10/25 16:38:45;;;;;;;26.65;19.17;;;;;;;;;;5085629;28;20485;-85
2021/10/25 16:41:14;;;;;;;28.73;19.23;;;;;;;;;;5079818;28;20040;-85
2021/10/25 16:43:42;;;;;;;40.83;22.35;;;;;;;;;;5078206;28;20051;-86
2021/10/25 16:46:09;;;;;;;62.78;37.33;;;;;;;;;;5079067;28;20454;-86
2021/10/25 16:48:39;;;;;;;28.85;19.85;;;;;;;;;;5113973;28;20098;-87
2021/10/25 16:51:10;;;;;;;31.48;20.67;;;;;;;;;;5085594;28;20068;-87
2021/10/25 16:53:53;;;;;;;28.60;20.63;;;;;;;;;;5105833;28;20258;-86
2021/10/25 17:10:45;;;;;;;36.33;25.80;;;;;;;;;;5001467;28;20129;-90
2021/10/25 17:13:23;;;;;;;35.53;22.08;;;;;;;;;;5070294;28;20048;-90
2021/10/25 17:15:54;;;;;;;35.05;21.92;;;;;;;;;;5090276;28;20090;-89
2021/10/25 17:18:22;;;;;;;37.63;25.83;;;;;;;;;;5081907;28;20500;-89
2021/10/25 17:21:10;;;;;;;38.13;25.60;;;;;;;;;;5086530;28;20315;-88
2021/10/25 17:24:07;;;;;;;29.55;20.73;;;;;;;;;;5079784;28;20081;-89
2021/10/25 17:26:38;;;;;;;29.65;20.73;;;;;;;;;;5093328;28;20561;-88
2021/10/25 17:29:11;;;;;;;33.00;21.00;;;;;;;;;;5096480;28;20066;-89
2021/10/25 17:31:40;;;;;;;30.13;20.40;;;;;;;;;;5084123;28;20371;-88
2021/10/25 17:34:10;;;;;;;37.58;25.73;;;;;;;;;;5088237;28;20090;-88
2021/10/25 17:36:38;;;;;;;45.03;29.27;;;;;;;;;;5091451;28;20066;-87
2021/10/25 17:45:12;;;;;;;40.88;26.83;;;;;;;;;;5098770;28;20044;-88
2021/10/25 17:48:09;;;;;;;69.80;38.22;;;;;;;;;;5089055;28;20097;-88
2021/10/25 17:51:02;;;;;;;58.15;35.20;;;;;;;;;;5083406;28;20444;-89
2021/10/25 17:53:30;;;;;;;78.78;42.45;;;;;;;;;;5089622;28;20058;-88
2021/10/25 17:56:19;;;;;;;51.72;27.77;;;;;;;;;;5091570;28;20078;-88
2021/10/25 17:58:49;;;;;;;34.63;23.75;;;;;;;;;;5086876;28;20074;-89
2021/10/25 18:01:22;;;;;;;45.10;28.33;;;;;;;;;;5079280;28;20507;-89
2021/10/25 18:03:58;;;;;;;48.22;28.10;;;;;;;;;;5068890;28;20374;-89
2021/10/25 18:06:27;;;;;;;66.70;40.83;;;;;;;;;;5086290;28;20071;-88
2021/10/25 18:08:58;;;;;;;50.88;29.75;;;;;;;;;;5081136;28;20124;-89
2021/10/25 18:11:45;;;;;;;;;;;;;;;;;;;;;
2021/10/25 18:14:20;;;;;;;54.13;30.60;;;;;;;;;;5086833;28;20052;-89
2021/10/25 18:16:50;;;;;;;50.30;29.70;;;;;;;;;;5086005;28;20537;-89
2021/10/25 18:19:23;;;;;;;49.35;32.47;;;;;;;;;;5088176;28;20073;-88
2021/10/25 18:21:51;;;;;;;44.30;30.50;;;;;;;;;;5087254;28;20048;-88
2021/10/25 18:24:19;;;;;;;54.30;31.70;;;;;;;;;;5084989;28;20122;-88
2021/10/25 18:26:46;;;;;;;38.20;26.45;;;;;;;;;;5073327;28;20055;-88
2021/10/25 18:29:14;;;;;;;45.13;27.48;;;;;;;;;;5083606;28;20134;-87
2021/10/25 18:31:42;;;;;;;41.40;26.98;;;;;;;;;;5082516;28;20525;-88
2021/10/25 18:34:23;;;;;;;;;;;;;;;;;;;;;
2021/10/25 18:36:55;;;;;;;39.55;25.92;;;;;;;;;;5083007;28;20512;-88
2021/10/25 18:39:23;;;;;;;44.85;31.88;;;;;;;;;;5083110;28;20048;-88
2021/10/25 18:41:50;;;;;;;44.92;32.92;;;;;;;;;;5076643;28;20095;-88
2021/10/25 18:44:29;;;;;;;46.90;32.63;;;;;;;;;;5084810;28;20040;-88
2021/10/25 18:46:57;;;;;;;47.17;29.45;;;;;;;;;;5087481;28;20696;-87
2021/10/25 18:49:27;;;;;;;48.78;31.80;;;;;;;;;;5110238;28;20046;-87
2021/10/25 18:54:41;;;;;;;46.92;32.55;;;;;;;;;;5043644;28;20528;-86
2021/10/25 18:57:23;;;;;;;52.30;35.78;;;;;;;;;;5091455;28;20049;-88
2021/10/25 18:59:53;;;;;;;50.08;32.97;;;;;;;;;;5081538;28;20051;-90
2021/10/25 19:02:28;;;;;;;39.80;26.48;;;;;;;;;;5082600;28;20127;-89
2021/10/25 19:05:18;;;;;;;36.22;24.83;;;;;;;;;;5081993;28;20044;-89
2021/10/25 19:08:07;;;;;;;36.13;23.17;;;;;;;;;;5089960;28;20412;-90
2021/10/25 19:11:13;;;;;;;;;;;;;;;;;;;;;
2021/10/25 19:13:40;;;;;;;44.53;27.58;;;;;;;;;;5087099;28;20357;-89
2021/10/25 19:16:15;;;;;;;45.60;28.95;;;;;;;;;;5078641;28;20044;-90
2021/10/25 19:19:04;;;;;;;46.88;26.77;;;;;;;;;;5097917;28;20044;-89
2021/10/25 19:21:46;;;;;;;49.28;32.15;;;;;;;;;;5100650;28;20028;-92
2021/10/25 19:24:16;;;;;;;50.45;33.35;;;;;;;;;;5237873;22;20059;-91
2021/10/25 19:26:48;;;;;;;43.35;27.38;;;;;;;;;;5110475;28;20036;-89
2021/10/25 19:29:17;;;;;;;43.70;25.42;;;;;;;;;;5112697;28;20024;-88
2021/10/25 19:31:46;;;;;;;41.58;25.02;;;;;;;;;;5097243;28;20098;-89
2021/10/25 19:34:14;;;;;;;32.05;22.75;;;;;;;;;;5090971;28;20047;-90
2021/10/25 19:36:43;;;;;;;41.47;25.33;;;;;;;;;;5090549;28;20063;-89
2021/10/25 19:39:12;;;;;;;36.83;24.02;;;;;;;;;;5084576;28;20127;-89
2021/10/25 19:41:42;;;;;;;36.85;24.35;;;;;;;;;;5088053;28;20045;-89
2021/10/25 19:44:09;;;;;;;39.50;26.73;;;;;;;;;;5091488;28;20103;-89
2021/10/25 19:46:37;;;;;;;41.30;25.42;;;;;;;;;;5089856;28;20044;-90
2021/10/25 19:49:07;;;;;;;44.50;26.45;;;;;;;;;;5090448;28;20036;-90
2021/10/25 19:51:35;;;;;;;42.40;28.02;;;;;;;;;;5089834;28;20045;-90
2021/10/25 19:54:03;;;;;;;44.65;30.92;;;;;;;;;;5090287;28;20040;-90
2021/10/25 20:02:55;;;;;;;37.35;22.98;;;;;;;;;;5164649;23;20119;-91
2021/10/25 20:05:26;;;;;;;35.20;22.05;;;;;;;;;;5532919;22;20061;31
2021/10/25 20:07:56;;;;;;;39.38;21.17;;;;;;;;;;5009195;28;20506;-89
2021/10/25 20:10:39;;;;;;;36.40;21.23;;;;;;;;;;5014835;28;20050;-89
2021/10/25 20:13:06;;;;;;;35.47;21.92;;;;;;;;;;5003280;28;20487;-89
2021/10/25 20:15:34;;;;;;;31.98;21.42;;;;;;;;;;5012992;28;20096;-87
2021/10/25 20:18:02;;;;;;;34.05;24.05;;;;;;;;;;5032789;28;20037;-89
2021/10/25 20:20:52;;;;;;;34.13;23.45;;;;;;;;;;5027360;28;20049;-91
2021/10/25 20:23:19;;;;;;;35.92;24.42;;;;;;;;;;5040657;28;20042;-89
2021/10/25 20:25:57;;;;;;;36.03;22.90;;;;;;;;;;5031188;28;20103;-94
2021/10/25 20:28:25;;;;;;;35.10;22.50;;;;;;;;;;5032045;28;20080;-91
2021/10/25 20:30:58;;;;;;;35.38;23.35;;;;;;;;;;5033675;28;20068;-93
2021/10/25 20:33:26;;;;;;;34.70;23.33;;;;;;;;;;5034867;28;20128;-91
2021/10/25 20:35:54;;;;;;;33.40;21.65;;;;;;;;;;5040909;28;20033;-85
2021/10/25 20:38:21;;;;;;;32.25;23.20;;;;;;;;;;5053277;28;20025;-85
2021/10/25 20:40:50;;;;;;;46.70;27.10;;;;;;;;;;5048503;28;20037;-85
2021/10/25 20:43:17;;;;;;;61.28;34.58;;;;;;;;;;5046678;28;20029;-85
2021/10/25 20:45:48;;;;;;;59.72;34.55;;;;;;;;;;5027016;28;20056;-85
2021/10/25 20:48:16;;;;;;;44.90;29.40;;;;;;;;;;5042916;28;20086;-90
2021/10/25 20:50:46;;;;;;;45.72;29.60;;;;;;;;;;5037725;28;20331;-85
2021/10/25 20:53:14;;;;;;;44.05;28.40;;;;;;;;;;5049268;28;20114;-85
2021/10/25 20:55:41;;;;;;;42.50;27.10;;;;;;;;;;5034588;28;20046;-84
2021/10/25 20:58:10;;;;;;;35.88;25.13;;;;;;;;;;5029884;28;20044;-84
2021/10/25 21:00:37;;;;;;;36.25;25.65;;;;;;;;;;5029224;28;20069;-85
2021/10/25 21:03:05;;;;;;;41.90;29.25;;;;;;;;;;5029693;28;20038;-85
2021/10/25 21:05:33;;;;;;;44.65;26.08;;;;;;;;;;5028855;28;20457;-85
2021/10/25 21:08:00;;;;;;;35.78;24.73;;;;;;;;;;5031017;28;20602;-84
2021/10/25 21:10:28;;;;;;;34.65;22.52;;;;;;;;;;5029949;28;20082;-85
2021/10/25 21:12:55;;;;;;;33.30;21.48;;;;;;;;;;5031171;28;20095;-85
2021/10/25 21:15:24;;;;;;;36.00;22.33;;;;;;;;;;5017034;28;20049;-84
2021/10/25 21:17:51;;;;;;;34.60;23.10;;;;;;;;;;5019786;28;20037;-85
2021/10/25 21:20:19;;;;;;;37.80;24.58;;;;;;;;;;5023880;28;20457;-85
2021/10/25 21:22:46;;;;;;;42.53;24.50;;;;;;;;;;5029733;28;20050;-84
2021/10/25 21:25:14;;;;;;;40.95;23.75;;;;;;;;;;5029727;28;20492;-85
2021/10/25 21:27:41;;;;;;;43.55;27.50;;;;;;;;;;5031443;28;20045;-84
2021/10/25 21:30:09;;;;;;;36.10;24.40;;;;;;;;;;5029599;28;20512;-85
